Hovedside
METAR-TAF:

METAR-TAF

Lufthavner :

Khajuraho, India

breddegrad: 24-49-02N, lengdegrad: 79-55-07E, høyde over havet: 222 m

Gjeldene værobservasjon

Denne rapporten ble laget for 9 timer og 0 minutter siden, klokken 12:00 UTC
Vind 6 kt fra Vest-sørvest
Temperatur 43°C
Luftfuktighet 19%
Trykk 997 hPa
Sikt: 6000 m
Spredte skyer i en høyde av 2000 ft
Få skyer i en høyde av 3000 ft, Bygeskyer.
Brutte skyer i en høyde av 10000 ft

METAR: VEKO 141200Z 25006KT 6000 SCT020 FEW030CB BKN100 43/14 Q0997

Tid: 02:30 (21:00 UTC)


TAF: fraværende

Værobservasjoner og værvarsel for over 4000 flyplasser (METAR- og TAF-rapporter).

Tilgjengelige stasjoner er representert av de røde og gule prikkene på kartet.

Hold musepekeren over prikken for å se navnet på stasjonen.

Klikk så for å se værobservasjoner og -varsler.

For å forandre kartet kan du klikke på den grønne knappen med svart kryss for å zoome inn, på den grønne knappen med strek for å zoome ut, eller på de grønne pilene for å se tilstøtende kart.


METAR-TAF: